Time;durP1;ratioP1;P1;durP2;ratioP2;P2;SDS_P1;SDS_P2;PMS_P1;PMS_P2;Temp;Humidity;BMP_temperature;BMP_pressure;BME280_temperature;BME280_humidity;BME280_pressure;Samples;Min_cycle;Max_cycle;Signal;HPM_P1;HPM_P2
2022/06/13 03:35:28;;;;;;;4.17;3.90;;;;;;;;;;5443010;23;20509;-91
2022/06/13 03:37:55;;;;;;;5.10;4.70;;;;;;;;;;5107844;23;20506;-91
2022/06/13 03:40:27;;;;;;;6.83;4.03;;;;;;;;;;4947580;29;20466;-91
2022/06/13 03:42:56;;;;;;;3.70;3.60;;;;;;;;;;4928708;28;20914;-93
2022/06/13 03:45:42;;;;;;;5.70;4.37;;;;;;;;;;4951575;28;20430;-91
2022/06/13 03:48:13;;;;;;;4.97;4.47;;;;;;;;;;4924766;29;20530;-91
2022/06/13 03:50:42;;;;;;;5.73;4.40;;;;;;;;;;4927863;29;20455;-91
2022/06/13 03:53:14;;;;;;;4.17;4.03;;;;;;;;;;4966587;29;20434;-91
2022/06/13 03:55:41;;;;;;;5.07;4.77;;;;;;;;;;4928645;29;20419;-91
2022/06/13 03:58:11;;;;;;;5.17;4.77;;;;;;;;;;4932544;29;20477;-92
2022/06/13 04:00:43;;;;;;;6.93;4.00;;;;;;;;;;4923617;29;20490;-91
2022/06/13 04:03:09;;;;;;;5.60;4.67;;;;;;;;;;4920249;29;20453;-92
2022/06/13 04:05:38;;;;;;;5.20;4.90;;;;;;;;;;4923544;29;20924;-91
2022/06/13 04:08:05;;;;;;;4.47;4.20;;;;;;;;;;4929440;29;20518;-90
2022/06/13 04:10:36;;;;;;;4.87;4.67;;;;;;;;;;4931629;29;20478;-93
2022/06/13 04:13:08;;;;;;;7.60;5.23;;;;;;;;;;4925463;29;20974;-93
2022/06/13 04:15:41;;;;;;;5.80;5.30;;;;;;;;;;4923500;29;20424;-91
2022/06/13 04:18:34;;;;;;;5.85;5.22;;;;;;;;;;4937441;29;20427;-91
2022/06/13 04:21:39;;;;;;;5.20;4.80;;;;;;;;;;4946293;29;20425;-93
2022/06/13 04:24:17;;;;;;;7.30;4.70;;;;;;;;;;4863638;29;20191;-91
2022/06/13 04:26:51;;;;;;;6.87;4.10;;;;;;;;;;4859345;29;20438;-91
2022/06/13 04:29:22;;;;;;;10.80;4.87;;;;;;;;;;4891382;29;20444;-89
2022/06/13 04:31:48;;;;;;;5.27;4.73;;;;;;;;;;4936692;29;20531;-92
2022/06/13 04:34:19;;;;;;;5.77;5.27;;;;;;;;;;4930922;29;20442;-93
2022/06/13 04:36:46;;;;;;;6.03;4.50;;;;;;;;;;4945756;29;20435;-91
2022/06/13 04:39:14;;;;;;;5.60;5.20;;;;;;;;;;4912822;29;20401;-91
2022/06/13 04:41:45;;;;;;;5.97;5.37;;;;;;;;;;4949579;29;20542;-91
2022/06/13 04:44:14;;;;;;;4.77;4.47;;;;;;;;;;4913419;29;20535;-91
2022/06/13 04:46:41;;;;;;;7.50;5.60;;;;;;;;;;4949705;29;20411;-91
2022/06/13 04:49:16;;;;;;;6.37;5.63;;;;;;;;;;4914341;29;20499;-88
2022/06/13 04:51:42;;;;;;;8.60;5.60;;;;;;;;;;4935781;29;20412;-88
2022/06/13 04:54:19;;;;;;;5.50;5.10;;;;;;;;;;4935855;29;20433;-87
2022/06/13 04:56:48;;;;;;;5.17;4.83;;;;;;;;;;4916253;29;20518;-92
2022/06/13 04:59:15;;;;;;;6.70;6.10;;;;;;;;;;4922714;29;20443;-89
2022/06/13 05:01:47;;;;;;;6.83;5.07;;;;;;;;;;4927431;29;20475;-91
2022/06/13 05:04:15;;;;;;;6.93;6.20;;;;;;;;;;4934154;29;20442;-91
2022/06/13 05:06:45;;;;;;;9.87;5.63;;;;;;;;;;4937865;29;20396;-87
2022/06/13 05:09:17;;;;;;;6.60;5.93;;;;;;;;;;4930346;29;20429;-90
2022/06/13 05:11:52;;;;;;;4.97;4.67;;;;;;;;;;4940653;29;20271;-91
2022/06/13 05:14:21;;;;;;;5.83;5.23;;;;;;;;;;4932637;29;20411;-87
2022/06/13 05:17:05;;;;;;;5.90;5.50;;;;;;;;;;4951811;29;20441;-91
2022/06/13 05:19:53;;;;;;;5.50;5.10;;;;;;;;;;4931959;29;20488;-91
2022/06/13 05:22:37;;;;;;;10.03;6.17;;;;;;;;;;4933543;29;20475;-91
2022/06/13 05:25:16;;;;;;;9.47;5.57;;;;;;;;;;4925735;29;20428;-88
2022/06/13 05:27:45;;;;;;;7.40;6.57;;;;;;;;;;4910250;29;20398;-90
2022/06/13 05:30:17;;;;;;;8.13;7.00;;;;;;;;;;4939750;29;20440;-91
2022/06/13 05:32:44;;;;;;;6.47;5.83;;;;;;;;;;4921349;29;20191;-92
2022/06/13 05:35:20;;;;;;;6.80;5.50;;;;;;;;;;4937369;29;20475;-89
2022/06/13 05:37:46;;;;;;;6.50;5.90;;;;;;;;;;4935216;29;20480;-91
2022/06/13 05:40:25;;;;;;;7.00;6.40;;;;;;;;;;4922209;29;20417;-86
2022/06/13 05:42:51;;;;;;;7.20;6.50;;;;;;;;;;5254099;23;20286;-89
2022/06/13 05:47:53;;;;;;;7.95;7.10;;;;;;;;;;4581489;27;20429;-90
2022/06/13 05:50:21;;;;;;;7.38;6.53;;;;;;;;;;4890436;29;20502;-87
2022/06/13 05:52:47;;;;;;;11.18;7.88;;;;;;;;;;4906203;29;20411;-90
2022/06/13 05:55:13;;;;;;;5.93;5.43;;;;;;;;;;4893111;29;20264;-88
2022/06/13 05:57:40;;;;;;;12.67;6.70;;;;;;;;;;4909298;29;20429;-88
2022/06/13 06:00:17;;;;;;;8.63;6.50;;;;;;;;;;4926834;29;21114;-92
2022/06/13 06:02:43;;;;;;;21.27;9.37;;;;;;;;;;4888726;29;20422;-88
2022/06/13 06:05:09;;;;;;;10.68;8.02;;;;;;;;;;4902902;29;20418;-87
2022/06/13 06:07:41;;;;;;;10.73;8.20;;;;;;;;;;4896348;29;20805;-88
2022/06/13 06:10:08;;;;;;;7.20;6.20;;;;;;;;;;4883807;29;20189;-89
2022/06/13 06:12:34;;;;;;;11.70;7.57;;;;;;;;;;4881740;29;20464;-85
2022/06/13 06:15:00;;;;;;;11.07;5.40;;;;;;;;;;4898469;29;20977;-88
2022/06/13 06:17:26;;;;;;;6.47;5.90;;;;;;;;;;4890644;29;20572;-89
2022/06/13 06:19:53;;;;;;;6.33;5.77;;;;;;;;;;4903200;29;20433;-87
2022/06/13 06:22:19;;;;;;;7.53;6.43;;;;;;;;;;4893625;29;20469;-86
2022/06/13 06:24:53;;;;;;;10.13;7.67;;;;;;;;;;4879867;29;20963;-87
2022/06/13 06:27:20;;;;;;;14.60;6.70;;;;;;;;;;4866697;29;20501;-88
2022/06/13 06:29:46;;;;;;;6.30;5.90;;;;;;;;;;4879474;29;20430;-88
2022/06/13 06:32:12;;;;;;;7.20;6.00;;;;;;;;;;4901911;29;20437;-89
2022/06/13 06:34:41;;;;;;;5.90;5.37;;;;;;;;;;4886582;29;20489;-89
2022/06/13 06:37:10;;;;;;;11.53;5.40;;;;;;;;;;4863736;29;20450;-89
2022/06/13 06:39:39;;;;;;;6.37;5.93;;;;;;;;;;4882557;29;20422;-87
2022/06/13 06:42:07;;;;;;;9.53;6.97;;;;;;;;;;4856209;29;21165;-88
2022/06/13 06:44:33;;;;;;;12.00;6.97;;;;;;;;;;4883620;29;20434;-87
2022/06/13 06:46:59;;;;;;;7.07;6.30;;;;;;;;;;4859439;29;20525;-87
2022/06/13 06:49:25;;;;;;;7.77;6.57;;;;;;;;;;4874385;29;20456;-87
2022/06/13 06:51:50;;;;;;;9.60;6.57;;;;;;;;;;4872537;29;20455;-87
2022/06/13 06:59:53;;;;;;;9.20;6.77;;;;;;;;;;4875852;29;21190;-88
2022/06/13 07:02:20;;;;;;;8.67;6.30;;;;;;;;;;4858898;29;20486;-88
2022/06/13 07:04:46;;;;;;;9.60;6.67;;;;;;;;;;4869263;29;20953;-88
2022/06/13 07:07:12;;;;;;;7.33;5.80;;;;;;;;;;4860314;29;20409;-89
2022/06/13 07:09:38;;;;;;;8.70;7.03;;;;;;;;;;4865327;29;21029;-89
2022/06/13 07:12:04;;;;;;;7.13;6.43;;;;;;;;;;4875605;29;20468;-89
2022/06/13 07:14:32;;;;;;;9.53;7.47;;;;;;;;;;4865415;29;20425;-88
2022/06/13 07:16:59;;;;;;;9.40;7.70;;;;;;;;;;4872640;29;20546;-87
2022/06/13 07:19:25;;;;;;;7.13;6.40;;;;;;;;;;4863441;29;20438;-88
2022/06/13 07:21:51;;;;;;;11.23;6.80;;;;;;;;;;4858934;29;20477;-89
2022/06/13 07:24:17;;;;;;;9.17;7.10;;;;;;;;;;4855004;29;21053;-88
2022/06/13 07:26:44;;;;;;;14.53;10.77;;;;;;;;;;4876692;29;20453;-90
2022/06/13 07:29:10;;;;;;;13.27;9.60;;;;;;;;;;4886373;29;20426;-90
2022/06/13 07:31:36;;;;;;;13.13;12.00;;;;;;;;;;4886367;29;20433;-92
2022/06/13 07:34:04;;;;;;;14.07;12.50;;;;;;;;;;4863733;29;20457;-88
2022/06/13 07:36:30;;;;;;;14.50;11.40;;;;;;;;;;4859179;29;20450;-88
2022/06/13 07:38:56;;;;;;;15.53;12.63;;;;;;;;;;4873865;29;20518;-88
2022/06/13 07:41:23;;;;;;;20.13;14.60;;;;;;;;;;4875661;29;20581;-87
2022/06/13 07:43:51;;;;;;;21.07;19.03;;;;;;;;;;4854065;29;20497;-88
2022/06/13 07:46:16;;;;;;;20.13;14.63;;;;;;;;;;4865498;29;20464;-87
2022/06/13 07:48:44;;;;;;;25.23;19.50;;;;;;;;;;4873505;29;20441;-88
2022/06/13 07:51:10;;;;;;;21.30;15.97;;;;;;;;;;4852336;29;20822;-89
2022/06/13 07:53:37;;;;;;;15.33;13.77;;;;;;;;;;4859152;29;20446;-88
2022/06/13 07:56:04;;;;;;;17.40;15.60;;;;;;;;;;4855529;29;20452;-85
2022/06/13 07:58:35;;;;;;;19.00;17.10;;;;;;;;;;4858057;29;20465;-87
2022/06/13 08:01:01;;;;;;;19.33;17.43;;;;;;;;;;4857293;29;20565;-87
2022/06/13 08:03:29;;;;;;;24.83;19.97;;;;;;;;;;4859778;29;20445;-89
2022/06/13 08:05:59;;;;;;;20.97;18.07;;;;;;;;;;4855450;29;20446;-88
2022/06/13 08:08:25;;;;;;;20.37;18.30;;;;;;;;;;4855233;29;20832;-87
2022/06/13 08:10:52;;;;;;;21.23;19.30;;;;;;;;;;4859445;29;20441;-88
2022/06/13 08:13:19;;;;;;;20.70;18.47;;;;;;;;;;4855676;29;21092;-90
2022/06/13 08:15:45;;;;;;;20.40;18.47;;;;;;;;;;4878909;29;20501;-88
2022/06/13 08:18:13;;;;;;;22.20;20.10;;;;;;;;;;4863402;29;20454;-88
2022/06/13 08:20:39;;;;;;;22.60;19.20;;;;;;;;;;4863666;29;20472;-89
2022/06/13 08:23:08;;;;;;;20.70;18.90;;;;;;;;;;4861698;29;20469;-89
2022/06/13 08:25:35;;;;;;;21.07;18.77;;;;;;;;;;4892844;29;21163;-90
2022/06/13 08:28:01;;;;;;;22.87;20.67;;;;;;;;;;4870793;29;20613;-89
2022/06/13 08:30:37;;;;;;;23.20;21.00;;;25.30;99.90;;;;;;4864366;29;20606;-88
2022/06/13 08:33:02;;;;;;;20.27;18.23;;;25.30;99.90;;;;;;4861677;29;21351;-89
2022/06/13 08:35:28;;;;;;;19.57;17.97;;;;;;;;;;4884185;29;20512;-90
2022/06/13 08:37:54;;;;;;;21.17;19.07;;;;;;;;;;4874816;29;20204;-89
2022/06/13 08:40:20;;;;;;;20.30;18.30;;;;;;;;;;4866299;29;20517;-90
2022/06/13 08:42:50;;;;;;;26.50;19.60;;;;;;;;;;4868291;29;20434;-89
2022/06/13 08:45:23;;;;;;;20.03;18.23;;;;;;;;;;4884109;29;20421;-90
2022/06/13 08:48:08;;;;;;;19.53;17.80;;;23.20;99.90;;;;;;4864798;29;20479;-85
2022/06/13 08:50:40;;;;;;;17.33;15.60;;;;;;;;;;4868135;29;20488;-89
2022/06/13 08:53:15;;;;;;;17.20;13.93;;;;;;;;;;4868522;29;20991;-90
2022/06/13 08:55:45;;;;;;;14.23;12.87;;;;;;;;;;4862340;29;20433;-88
2022/06/13 08:58:27;;;;;;;12.43;11.23;;;;;;;;;;4863732;29;20508;-84
2022/06/13 09:01:06;;;;;;;15.40;12.83;;;;;;;;;;4872197;29;21004;-90
2022/06/13 09:03:56;;;;;;;14.67;11.80;;;;;;;;;;4870723;29;20520;-86
2022/06/13 09:06:30;;;;;;;11.47;10.47;;;;;;;;;;4842298;29;20475;-91
2022/06/13 09:09:21;;;;;;;14.10;9.20;;;;;;;;;;4852053;29;20432;-90
2022/06/13 09:11:50;;;;;;;10.13;8.63;;;;;;;;;;4881404;29;20223;-89
2022/06/13 09:14:23;;;;;;;11.97;7.83;;;;;;;;;;4876292;29;20933;-91
2022/06/13 09:17:08;;;;;;;7.53;6.83;;;;;;;;;;4874092;29;20437;-90
2022/06/13 09:19:48;;;;;;;7.80;7.00;;;;;;;;;;4883226;29;20484;-90
2022/06/13 09:22:21;;;;;;;8.00;7.20;;;;;;;;;;4849337;29;20494;-88
2022/06/13 09:24:58;;;;;;;15.87;8.07;;;;;;;;;;4879581;29;20429;-88
2022/06/13 09:27:27;;;;;;;12.47;6.40;;;;;;;;;;4871927;29;20484;-90
2022/06/13 09:29:56;;;;;;;9.70;6.27;;;;;;;;;;4890382;29;21015;-89
2022/06/13 09:32:37;;;;;;;7.33;6.60;;;;;;;;;;4864814;29;20446;-88
2022/06/13 09:35:09;;;;;;;10.90;8.20;;;;;;;;;;4880217;29;21044;-87
2022/06/13 09:37:44;;;;;;;11.27;8.70;;;;;;;;;;4857006;29;20430;-90
2022/06/13 09:43:02;;;;;;;14.47;10.00;;;;;;;;;;4380342;23;10001946;-91
2022/06/13 09:45:50;;;;;;;10.57;9.10;;;;;;;;;;4949927;29;20191;-90
2022/06/13 09:48:21;;;;;;;13.90;8.87;;;;;;;;;;4935167;29;20479;-90
2022/06/13 09:50:51;;;;;;;10.33;9.23;;;;;;;;;;4961303;28;20468;-90
2022/06/13 09:53:24;;;;;;;16.83;10.27;;;;;;;;;;4961165;29;20518;-91
2022/06/13 09:56:14;;;;;;;9.93;8.67;;;;;;;;;;4964311;28;20481;-90
2022/06/13 09:58:40;;;;;;;9.53;8.30;;;;;;;;;;4941981;29;20442;-89
2022/06/13 10:01:21;;;;;;;8.17;7.43;;;;;;;;;;4955854;29;20477;-88
2022/06/13 10:03:53;;;;;;;11.17;4.97;;;;;;;;;;4957996;28;20513;-85
2022/06/13 10:06:35;;;;;;;9.80;5.73;;;;;;;;;;4930404;29;20442;-86
2022/06/13 10:09:14;;;;;;;5.80;4.60;;;;;;;;;;4955935;28;20477;-85
2022/06/13 10:11:49;;;;;;;9.10;4.30;;;;;;;;;;4937408;29;20832;-86
2022/06/13 10:14:16;;;;;;;7.20;4.10;;;;;;;;;;4924410;29;20455;-86
2022/06/13 10:16:42;;;;;;;6.50;4.50;;;;;;;;;;4954243;28;20482;-86
2022/06/13 10:19:30;;;;;;;3.90;3.60;;;;;;;;;;4952651;28;20963;-85
2022/06/13 10:21:59;;;;;;;5.57;5.10;;;;;;;;;;4934908;29;20487;-85
2022/06/13 10:24:34;;;;;;;5.53;5.10;;;;;;;;;;4923934;29;20454;-85
2022/06/13 10:27:10;;;;;;;4.77;4.47;;;;;;;;;;4912424;29;20486;-85
2022/06/13 10:29:56;;;;;;;5.07;4.57;;;;;;;;;;4931899;29;20454;-85
2022/06/13 10:32:38;;;;;;;5.10;4.37;;;;;;;;;;4947517;29;20434;-86
2022/06/13 10:35:03;;;;;;;6.50;4.13;;;;;;;;;;4947499;29;20436;-84
2022/06/13 10:37:43;;;;;;;5.93;4.10;;;;;;;;;;4932041;29;20522;-85
2022/06/13 10:40:11;;;;;;;5.50;4.47;;;;;;;;;;4934726;29;20457;-86
2022/06/13 10:42:38;;;;;;;7.90;4.43;;;;;;;;;;4929652;29;20978;-85
2022/06/13 10:45:10;;;;;;;3.93;3.63;;;;;;;;;;4943080;29;20442;-85
2022/06/13 10:47:59;;;;;;;6.13;4.23;;;;;;;;;;4946265;29;20519;-85
2022/06/13 10:50:28;;;;;;;4.27;3.40;;;;;;;;;;4950348;29;20691;-86
2022/06/13 10:52:59;;;;;;;4.53;3.53;;;;;;;;;;4916857;29;20450;-88
2022/06/13 10:55:25;;;;;;;3.13;2.97;;;;;;;;;;4924751;29;20423;-85
2022/06/13 10:58:00;;;;;;;4.40;3.70;;;;;;;;;;4933299;29;20453;-84
2022/06/13 11:00:28;;;;;;;11.30;10.20;;;;;;;;;;4601081;29;10000008;-86
2022/06/13 11:03:16;;;;;;;3.70;3.40;;;;;;;;;;4920052;29;20280;-86
2022/06/13 11:05:59;;;;;;;3.53;3.20;;;;;;;;;;4918964;29;20463;-88
2022/06/13 11:08:27;;;;;;;2.73;2.50;;;;;;;;;;4930190;29;20866;-87
2022/06/13 11:11:16;;;;;;;3.20;3.00;;;;;;;;;;4922674;29;20450;-90
2022/06/13 11:13:45;;;;;;;2.33;2.23;;;;;;;;;;4909340;29;20508;-85
2022/06/13 11:24:53;;;;;;;2.37;2.20;;;;;;;;;;4933277;29;20497;-89
2022/06/13 11:30:17;;;;;;;3.17;2.00;;;;;;;;;;4938613;29;20530;-92
2022/06/13 11:32:55;;;;;;;2.13;2.03;;;23.30;69.10;;;;;;4926594;29;20455;-94
2022/06/13 11:35:32;;;;;;;2.10;1.97;;;;;;;;;;4944676;29;20792;-90
2022/06/13 11:38:13;;;;;;;5.53;2.37;;;;;;;;;;4944177;29;20417;-90
2022/06/13 11:40:39;;;;;;;2.60;2.00;;;;;;;;;;4921344;29;20426;-92
2022/06/13 11:43:17;;;;;;;2.70;2.07;;;;;;;;;;4937436;29;20548;-92
2022/06/13 11:45:43;;;;;;;2.00;1.90;;;;;;;;;;4915234;29;20461;-89
2022/06/13 11:48:14;;;;;;;2.57;2.47;;;;;;;;;;4958449;29;20444;-91
2022/06/13 11:50:40;;;;;;;2.37;2.27;;;;;;;;;;4900427;29;20511;-89
2022/06/13 11:55:59;;;;;;;3.90;2.27;;;22.00;77.30;;;;;;4948082;29;20923;-93
2022/06/13 11:58:31;;;;;;;1.70;1.70;;;22.00;77.50;;;;;;4918975;29;20458;-91
2022/06/13 12:01:17;;;;;;;1.57;1.40;;;;;;;;;;4947628;29;20429;-91
2022/06/13 12:03:57;;;;;;;1.70;1.60;;;23.90;64.90;;;;;;4931107;29;20454;-92
2022/06/13 12:06:22;;;;;;;1.30;1.30;;;;;;;;;;4921957;29;20494;-90
2022/06/13 12:08:58;;;;;;;2.07;2.07;;;23.50;64.20;;;;;;4921925;29;20940;-91
2022/06/13 12:11:24;;;;;;;6.03;1.50;;;23.80;69.90;;;;;;4926332;29;20510;-87
2022/06/13 12:13:52;;;;;;;0.97;0.97;;;25.20;68.00;;;;;;4955766;29;20445;-92
2022/06/13 12:16:24;;;;;;;4.17;1.40;;;26.50;70.70;;;;;;4970062;29;20428;-91
2022/06/13 12:18:57;;;;;;;0.90;0.90;;;;;;;;;;4910841;29;20435;-92
2022/06/13 12:21:59;;;;;;;1.30;1.30;;;;;;;;;;4932774;29;20475;-91
2022/06/13 12:24:31;;;;;;;0.97;0.97;;;;;;;;;;4911974;29;20800;-91
2022/06/13 12:26:57;;;;;;;1.03;1.03;;;;;;;;;;4916266;29;20435;-90
2022/06/13 12:29:44;;;;;;;1.03;1.03;;;;;;;;;;4922408;29;20862;-91
2022/06/13 12:32:33;;;;;;;1.93;1.73;;;26.80;70.00;;;;;;4916354;29;20434;-92
2022/06/13 12:35:05;;;;;;;0.80;0.80;;;;;;;;;;4924739;29;20494;-91
2022/06/13 12:38:11;;;;;;;1.43;0.90;;;25.60;71.40;;;;;;4918946;29;20505;-91
2022/06/13 12:46:26;;;;;;;0.93;0.90;;;;;;;;;;2945365;23;20509;-91
2022/06/13 12:49:18;;;;;;;3.80;1.77;;;;;;;;;;4935567;29;20435;-89
2022/06/13 12:52:07;;;;;;;1.30;1.30;;;;;;;;;;4966425;28;20447;-90
2022/06/13 12:54:51;;;;;;;3.20;1.43;;;26.40;61.80;;;;;;4960160;28;20431;-88
2022/06/13 12:57:46;;;;;;;1.47;1.37;;;26.10;65.40;;;;;;4967484;23;20497;-88
2022/06/13 13:00:33;;;;;;;3.40;0.80;;;26.40;59.50;;;;;;4947136;29;20442;-91
2022/06/13 13:04:02;;;;;;;1.93;1.27;;;27.10;58.70;;;;;;4955407;29;21026;-91
2022/06/13 13:06:45;;;;;;;1.37;1.23;;;;;;;;;;4908369;29;20457;-89
2022/06/13 13:09:27;;;;;;;1.33;1.00;;;;;;;;;;4963565;28;20429;-91
2022/06/13 13:12:22;;;;;;;;;;;;;;;;;;;;;
2022/06/13 13:15:32;;;;;;;2.80;1.60;;;25.90;56.90;;;;;;4961565;29;20502;-90
2022/06/13 13:18:46;;;;;;;1.60;1.10;;;25.80;57.90;;;;;;4944771;29;20524;-91
2022/06/13 13:21:34;;;;;;;1.80;1.57;;;26.60;59.70;;;;;;4936915;29;20457;-91
2022/06/13 13:24:49;;;;;;;1.00;1.00;;;27.60;56.40;;;;;;4939292;28;20597;-92
2022/06/13 13:30:20;;;;;;;2.43;1.27;;;27.90;54.50;;;;;;4797406;23;21012;-90
2022/06/13 13:32:46;;;;;;;1.57;1.47;;;;;;;;;;4971761;28;20437;-87
2022/06/13 13:35:38;;;;;;;1.03;1.03;;;25.70;57.90;;;;;;4948848;28;20448;-85
2022/06/13 13:38:08;;;;;;;1.10;1.10;;;24.70;61.60;;;;;;4950839;28;20444;-87
2022/06/13 13:41:06;;;;;;;1.90;1.17;;;24.30;59.20;;;;;;4974457;28;20421;-90
2022/06/13 13:44:00;;;;;;;1.40;1.23;;;24.60;62.50;;;;;;4919417;29;20474;-91
2022/06/13 13:47:15;;;;;;;1.47;1.00;;;26.10;57.50;;;;;;4933605;28;20426;-92
2022/06/13 13:50:05;;;;;;;2.23;1.10;;;27.90;55.80;;;;;;4935569;29;20457;-90
2022/06/13 13:52:45;;;;;;;1.63;1.63;;;27.90;56.10;;;;;;4936524;29;20445;-91
2022/06/13 13:55:17;;;;;;;1.70;1.60;;;27.70;58.60;;;;;;4932263;29;20786;-92
2022/06/13 13:58:14;;;;;;;1.20;1.20;;;27.60;58.60;;;;;;4939522;29;20454;-89
2022/06/13 14:01:10;;;;;;;1.70;1.70;;;26.80;59.60;;;;;;4938327;29;20489;-91
2022/06/13 14:03:54;;;;;;;2.73;1.10;;;26.80;57.60;;;;;;4920388;28;20487;-89
2022/06/13 14:06:29;;;;;;;1.53;1.43;;;27.10;59.80;;;;;;4935112;29;20438;-92
2022/06/13 14:08:57;;;;;;;1.40;1.30;;;;;;;;;;4929799;28;20795;-91
2022/06/13 14:11:24;;;;;;;1.83;1.30;;;;;;;;;;4938648;29;20653;-90
2022/06/13 14:14:00;;;;;;;2.20;1.20;;;26.40;58.80;;;;;;4960411;28;20449;-91
2022/06/13 14:16:26;;;;;;;2.60;1.43;;;;;;;;;;4944497;28;20448;-90
2022/06/13 14:19:02;;;;;;;2.40;1.53;;;27.30;59.00;;;;;;4948030;28;20445;-89
2022/06/13 14:21:34;;;;;;;1.67;1.30;;;27.40;58.90;;;;;;4931406;29;20481;-87
2022/06/13 14:24:11;;;;;;;5.40;1.83;;;27.00;56.60;;;;;;4952172;28;20495;-84
2022/06/13 14:26:57;;;;;;;1.67;1.67;;;26.80;57.40;;;;;;4932190;29;20441;-89
2022/06/13 14:29:28;;;;;;;1.70;1.70;;;25.90;59.30;;;;;;4926196;29;20469;-89
2022/06/13 14:32:05;;;;;;;1.40;1.30;;;26.40;62.60;;;;;;4945747;28;20498;-90
2022/06/13 14:37:24;;;;;;;2.60;2.23;;;;;;;;;;4956918;28;20474;-86
2022/06/13 14:40:11;;;;;;;1.27;1.27;;;25.60;62.70;;;;;;4950223;28;20458;-88
2022/06/13 14:42:57;;;;;;;2.73;1.60;;;25.70;62.00;;;;;;4945176;29;20476;-87
2022/06/13 14:45:39;;;;;;;1.27;1.27;;;25.30;63.00;;;;;;4911972;29;20452;-88
2022/06/13 14:48:22;;;;;;;1.70;1.60;;;24.40;60.30;;;;;;4935420;29;21069;-89
2022/06/13 14:50:59;;;;;;;1.47;1.40;;;24.30;66.50;;;;;;4934085;29;20449;-88
2022/06/13 14:53:43;;;;;;;3.07;1.37;;;23.80;62.60;;;;;;4934532;29;20449;-85
2022/06/13 14:56:09;;;;;;;1.70;1.60;;;23.20;69.80;;;;;;4935360;29;20428;-88
2022/06/13 14:58:44;;;;;;;5.20;1.70;;;;;;;;;;4946903;28;20812;-93
2022/06/13 15:01:20;;;;;;;2.00;1.70;;;;;;;;;;4943138;29;20220;-89
2022/06/13 15:04:02;;;;;;;1.83;1.70;;;;;;;;;;4949358;28;20476;-89
2022/06/13 15:06:43;;;;;;;2.30;2.10;;;;;;;;;;4934601;29;20430;-90
2022/06/13 15:09:26;;;;;;;2.30;1.50;;;;;;;;;;4958280;29;20525;-91
2022/06/13 15:12:14;;;;;;;1.47;1.40;;;;;;;;;;4961067;28;20496;-92
2022/06/13 15:14:45;;;;;;;3.70;3.47;;;;;;;;;;4953710;28;20440;-88
2022/06/13 15:17:11;;;;;;;1.57;1.47;;;;;;;;;;4953737;29;20434;-90
2022/06/13 15:19:48;;;;;;;3.03;2.10;;;;;;;;;;4971974;28;20433;-88
2022/06/13 15:22:18;;;;;;;1.53;1.40;;;;;;;;;;4936320;29;20501;-90
2022/06/13 15:24:48;;;;;;;1.57;1.47;;;;;;;;;;4957120;28;20438;-90
2022/06/13 15:27:17;;;;;;;1.97;1.77;;;;;;;;;;4969316;28;20740;-91
2022/06/13 15:30:14;;;;;;;2.47;1.70;;;;;;;;;;4937948;28;20459;-91
2022/06/13 15:32:43;;;;;;;3.10;1.40;;;;;;;;;;4942678;29;20446;-91
2022/06/13 15:35:13;;;;;;;1.67;1.30;;;;;;;;;;4959072;28;20442;-94
2022/06/13 15:37:47;;;;;;;3.27;2.27;;;;;;;;;;4957482;29;20442;-92
2022/06/13 15:40:21;;;;;;;3.47;2.23;;;;;;;;;;4950098;29;20439;-91
2022/06/13 15:42:50;;;;;;;2.07;1.90;;;;;;;;;;4966075;29;20495;-88
2022/06/13 15:45:25;;;;;;;5.90;1.80;;;;;;;;;;4968231;28;20963;-94
2022/06/13 15:47:52;;;;;;;3.20;1.87;;;;;;;;;;4943740;29;20444;-91
2022/06/13 15:50:20;;;;;;;1.57;1.43;;;;;;;;;;4959530;29;20472;-89
2022/06/13 15:52:51;;;;;;;1.57;1.47;;;;;;;;;;4950470;29;20461;-92
2022/06/13 15:55:27;;;;;;;1.43;1.43;;;;;;;;;;4946998;28;20972;-90
2022/06/13 15:58:01;;;;;;;1.57;1.57;;;;;;;;;;4961261;29;20504;-91
2022/06/13 16:00:36;;;;;;;1.30;1.27;;;;;;;;;;4953368;29;20410;-91
2022/06/13 16:03:07;;;;;;;1.73;1.53;;;;;;;;;;4941764;29;20497;-91
2022/06/13 16:05:33;;;;;;;3.47;1.87;;;;;;;;;;4984203;28;20433;-91
2022/06/13 16:08:01;;;;;;;1.53;1.53;;;;;;;;;;4974147;28;20529;-89
2022/06/13 16:10:36;;;;;;;4.20;1.60;;;;;;;;;;4947181;29;20406;-91
2022/06/13 16:13:04;;;;;;;3.30;1.73;;;;;;;;;;4945638;29;20465;-85
2022/06/13 16:15:33;;;;;;;2.63;2.50;;;;;;;;;;4986803;28;20449;-88
2022/06/13 16:18:30;;;;;;;2.37;1.80;;;;;;;;;;4956769;28;20494;-90
2022/06/13 16:20:59;;;;;;;1.40;1.40;;;;;;;;;;4969409;29;20445;-90
2022/06/13 16:23:27;;;;;;;1.30;1.20;;;;;;;;;;5023923;23;20756;-90
2022/06/13 16:25:56;;;;;;;1.20;1.13;;;;;;;;;;4971884;29;20423;-90
2022/06/13 16:28:43;;;;;;;2.50;2.40;;;;;;;;;;4964334;29;20430;-91
2022/06/13 16:31:13;;;;;;;2.07;1.87;;;;;;;;;;4954582;29;20439;-89
2022/06/13 16:33:50;;;;;;;1.47;1.37;;;;;;;;;;4979041;28;20444;-90
2022/06/13 16:38:54;;;;;;;2.30;1.30;;;;;;;;;;5131266;23;20460;-91
2022/06/13 16:41:31;;;;;;;1.90;1.27;;;;;;;;;;4971850;29;20481;-89
2022/06/13 16:44:01;;;;;;;2.07;1.83;;;;;;;;;;4940250;29;20919;-91
2022/06/13 16:46:28;;;;;;;2.17;1.30;;;;;;;;;;4969577;29;20453;-91
2022/06/13 16:49:02;;;;;;;1.70;1.60;;;;;;;;;;4974809;28;20464;-89
2022/06/13 16:51:36;;;;;;;1.53;1.40;;;;;;;;;;4274692;29;9999768;-89
2022/06/13 16:54:25;;;;;;;1.40;1.23;;;;;;;;;;4957882;29;20182;-90
2022/06/13 16:56:54;;;;;;;1.83;1.73;;;;;;;;;;4962100;29;20441;-88
2022/06/13 16:59:26;;;;;;;3.17;1.70;;;;;;;;;;4972502;29;20620;-91
2022/06/13 17:01:56;;;;;;;2.50;1.50;;;;;;;;;;4972824;29;20425;-89
2022/06/13 17:04:37;;;;;;;1.43;1.40;;;;;;;;;;4940934;29;20492;-90
2022/06/13 17:07:10;;;;;;;1.63;1.53;;;;;;;;;;4966543;29;20473;-90
2022/06/13 17:09:57;;;;;;;1.93;1.83;;;;;;;;;;4941998;29;20430;-89
2022/06/13 17:12:23;;;;;;;2.00;1.90;;;;;;;;;;4959750;29;20453;-89
2022/06/13 17:14:53;;;;;;;3.43;1.30;;;;;;;;;;4994704;28;20484;-89
2022/06/13 17:17:21;;;;;;;1.43;1.23;;;;;;;;;;4957429;29;20406;-89
2022/06/13 17:19:52;;;;;;;1.03;1.03;;;;;;;;;;4978735;28;20453;-90
2022/06/13 17:22:21;;;;;;;1.60;1.60;;;;;;;;;;4957086;29;20875;-89
2022/06/13 17:24:48;;;;;;;3.37;1.33;;;;;;;;;;4954705;29;20434;-91
2022/06/13 17:43:41;;;;;;;1.97;1.80;;;;;;;;;;5254655;23;20502;-92
2022/06/13 17:46:20;;;;;;;1.80;1.70;;;;;;;;;;4973688;28;20438;-91
2022/06/13 17:48:47;;;;;;;1.57;1.47;;;;;;;;;;4954889;29;20472;-91
2022/06/13 17:51:17;;;;;;;1.47;1.37;;;;;;;;;;4957271;28;20437;-92
2022/06/13 17:54:03;;;;;;;3.83;3.73;;;;;;;;;;4958185;29;20501;-93
2022/06/13 17:56:31;;;;;;;2.53;1.80;;;;;;;;;;4961582;29;20426;-89
2022/06/13 17:58:57;;;;;;;1.40;1.40;;;;;;;;;;4947161;29;20508;-89
2022/06/13 18:01:23;;;;;;;1.90;1.30;;;;;;;;;;4949300;29;20476;-90
2022/06/13 18:03:50;;;;;;;2.33;1.70;;;;;;;;;;4945061;29;20498;-88
2022/06/13 18:06:18;;;;;;;2.00;1.60;;;;;;;;;;4972359;28;20437;-89
2022/06/13 18:09:11;;;;;;;3.13;1.40;;;;;;;;;;4972967;28;20446;-90
2022/06/13 18:11:39;;;;;;;1.60;1.53;;;;;;;;;;4970703;29;20426;-89
2022/06/13 18:14:05;;;;;;;1.83;1.73;;;;;;;;;;4970013;28;20430;-89
2022/06/13 18:16:32;;;;;;;1.43;1.33;;;;;;;;;;4951227;28;20506;-88
2022/06/13 18:19:02;;;;;;;5.93;2.70;;;;;;;;;;4967154;29;20446;-90
2022/06/13 18:21:32;;;;;;;1.93;1.30;;;;;;;;;;4958478;28;20470;-90
2022/06/13 18:24:08;;;;;;;4.27;1.53;;;;;;;;;;4968634;28;20571;-87
2022/06/13 18:26:37;;;;;;;2.37;2.17;;;;;;;;;;4948880;29;20524;-93
2022/06/13 18:29:21;;;;;;;2.83;2.73;;;;;;;;;;4953060;29;20383;-91
2022/06/13 18:31:47;;;;;;;2.53;2.13;;;;;;;;;;4949186;29;20435;-93
2022/06/13 18:34:15;;;;;;;1.60;1.60;;;;;;;;;;4956992;29;20446;-89
2022/06/13 18:36:41;;;;;;;1.53;1.43;;;;;;;;;;4961801;28;20431;-93
2022/06/13 18:39:08;;;;;;;1.43;1.33;;;;;;;;;;4968788;29;20436;-90
2022/06/13 18:41:35;;;;;;;3.40;1.97;;;;;;;;;;4954901;29;20432;-92
2022/06/13 18:44:05;;;;;;;2.13;1.90;;;;;;;;;;4967027;28;20482;-94
2022/06/13 18:46:33;;;;;;;3.47;1.83;;;;;;;;;;4955765;28;20437;-92
2022/06/13 18:49:01;;;;;;;2.20;2.10;;;;;;;;;;4953150;29;20505;-92
2022/06/13 18:51:30;;;;;;;3.50;1.77;;;;;;;;;;4965736;29;20442;-92
2022/06/13 18:54:02;;;;;;;1.97;1.87;;;;;;;;;;4963301;28;20473;-91
2022/06/13 18:56:31;;;;;;;2.07;1.73;;;;;;;;;;4967567;28;20434;-92
2022/06/13 18:58:57;;;;;;;1.60;1.60;;;;;;;;;;4954203;29;20446;-90
2022/06/13 19:01:23;;;;;;;2.70;1.83;;;;;;;;;;4959073;28;20438;-91
2022/06/13 19:03:58;;;;;;;2.20;1.70;;;;;;;;;;4954153;29;20550;-90
2022/06/13 19:06:29;;;;;;;2.23;1.87;;;;;;;;;;4961610;29;20505;-92
2022/06/13 19:09:08;;;;;;;1.80;1.63;;;;;;;;;;4932860;29;20423;-91
2022/06/13 19:11:37;;;;;;;4.37;1.60;;;;;;;;;;4950086;29;20488;-93
2022/06/13 19:14:13;;;;;;;1.97;1.87;;;;;;;;;;4941207;29;20538;-92
2022/06/13 19:19:42;;;;;;;1.93;1.83;;;;;;;;;;5485949;23;20500;-93
2022/06/13 19:22:11;;;;;;;3.07;2.50;;;;;;;;;;4951545;29;20468;-91
2022/06/13 19:24:44;;;;;;;1.90;1.80;;;;;;;;;;4958792;29;20481;-93
2022/06/13 19:27:14;;;;;;;1.93;1.83;;;;;;;;;;4940742;29;20503;-91
2022/06/13 19:29:42;;;;;;;2.00;1.87;;;;;;;;;;5331068;23;20474;-91
2022/06/13 19:34:50;;;;;;;5.10;1.63;;;;;;;;;;5388267;23;20504;-91